Pagina principale
METAR-TAF:

METAR-TAF

Aeroporti :

Aeroporto di Brindisi-Casale

Brindisi, Italia

latitudine: 40-39N, longitudine: 017-57E, altezza: 15 m

Osservazione

Il bollettino è stato emesso 25 minuti fa, alle 10:50 UTC
Vento 10 kt da est
Temperature 23°C
Umidità 53%
Pressione 1018 hPa
Visibilità 10 km o più
Poco nuvoloso ad un'altezza di 2500 ft

METAR: LIBR 151050Z 10010KT 9999 FEW025 23/13 Q1018

Ora: 13:15 (11:15 UTC)

Previsione

Il bollettino è stato emesso 6 ore e 15 minuti fa, alle 05:00 UTC
Previsione valida dal 15 alle 06 UTC al 16 alle 06 UTC
Vento 5 kt da direzioni variabili
Visibilità 10 km o più
Poco nuvoloso ad un'altezza di 3000 ft
Evoluzione graduale
dal 15 alle 07 UTC al 15 alle 09 UTC
Vento 15 kt da sud/sud-est
Temporaneamente
dal 15 alle 12 UTC al 16 alle 06 UTC
temporale, pioggia

TAF: LIBR 150500Z 1506/1606 VRB05KT 9999 FEW030 BECMG 1507/1509 15015KT TEMPO 1512/1606 TSRA

Osservazioni e previsioni meteorologiche di più di 4000 aeroporti (messaggi METAR e TAF).

Le stazioni disponibili sono rappresentate dai dischi gialli e rossi sulla carta.

Puntare il mouse per vedere il nome della stazione.

Clicca sopra per visualizzare le osservazioni e previsioni meteorologiche.

Per cambiare la mappa : fare clic sui pulsanti verdi con una croce nera per ingrandire, il pulsante verde con un trattino per diminuire, o sulla freccia verde per le mappe adiacenti.


METAR-TAF: